Time;durP1;ratioP1;P1;durP2;ratioP2;P2;SDS_P1;SDS_P2;PMS_P1;PMS_P2;Temp;Humidity;BMP_temperature;BMP_pressure;BME280_temperature;BME280_humidity;BME280_pressure;Samples;Min_cycle;Max_cycle;Signal;HPM_P1;HPM_P2
2021/01/01 00:01:42;;;;;;;40.63;23.15;;;;;;;3.31;81.08;99467.10;1788757;78;21242;-76
2021/01/01 00:04:08;;;;;;;46.75;25.02;;;;;;;3.18;81.44;99472.50;1788634;78;21605;-75
2021/01/01 00:06:40;;;;;;;48.42;25.62;;;;;;;3.21;81.53;99470.47;1787094;78;21160;-75
2021/01/01 00:09:08;;;;;;;52.17;25.32;;;;;;;3.26;81.83;99471.88;1786960;78;21197;-74
2021/01/01 00:11:36;;;;;;;47.53;25.75;;;;;;;3.34;81.28;99473.38;1786680;78;21348;-80
2021/01/01 00:14:02;;;;;;;51.30;28.12;;;;;;;3.35;80.88;99475.04;1792464;78;21577;-77
2021/01/01 00:16:28;;;;;;;53.43;30.10;;;;;;;3.32;81.33;99476.59;1774923;78;23808;-77
2021/01/01 00:18:54;;;;;;;56.13;29.75;;;;;;;3.39;81.52;99469.93;1769210;80;28349;-78
2021/01/01 00:21:20;;;;;;;57.45;29.82;;;;;;;3.37;81.21;99467.91;1759813;80;26754;-77
2021/01/01 00:23:46;;;;;;;59.03;31.55;;;;;;;3.42;81.41;99473.59;1756449;80;22215;-74
2021/01/01 00:26:14;;;;;;;59.30;32.33;;;;;;;3.27;81.23;99474.85;1760863;80;26981;-76
2021/01/01 00:28:43;;;;;;;58.95;32.58;;;;;;;3.14;81.46;99478.46;1758748;80;21232;-75
2021/01/01 00:31:14;;;;;;;67.65;33.90;;;;;;;3.24;81.86;99479.34;1754522;80;21151;-77
2021/01/01 00:33:40;;;;;;;60.05;33.13;;;;;;;3.33;81.34;99484.78;1759197;80;21240;-78
2021/01/01 00:36:06;;;;;;;62.08;34.50;;;;;;;3.33;81.03;99485.61;1758687;80;21198;-76
2021/01/01 00:38:32;;;;;;;66.67;34.35;;;;;;;3.32;80.83;99491.77;1759511;80;21157;-73
2021/01/01 00:40:58;;;;;;;62.60;34.05;;;;;;;3.40;81.30;99491.98;1759078;80;24346;-73
2021/01/01 00:43:24;;;;;;;65.78;35.48;;;;;;;3.35;80.52;99490.70;1756044;79;28425;-77
2021/01/01 00:45:50;;;;;;;62.48;34.25;;;;;;;3.43;83.08;99489.58;1756990;80;27299;-76
2021/01/01 00:48:15;;;;;;;68.67;35.23;;;;;;;3.54;82.13;99496.06;1754486;80;21269;-73
2021/01/01 00:50:41;;;;;;;67.53;37.40;;;;;;;3.59;81.14;99487.37;1758294;80;26141;-74
2021/01/01 00:53:07;;;;;;;71.20;36.27;;;;;;;3.49;80.59;99490.37;1756557;80;23720;-75
2021/01/01 00:55:33;;;;;;;73.17;37.83;;;;;;;3.54;80.39;99493.91;1763314;80;28301;-74
2021/01/01 00:57:59;;;;;;;62.85;37.67;;;;;;;3.47;79.81;99483.16;1760313;80;26767;-73
2021/01/01 01:00:24;;;;;;;82.08;40.40;;;;;;;3.52;80.14;99483.59;1758011;80;21359;-73
2021/01/01 01:02:50;;;;;;;78.57;40.23;;;;;;;3.44;79.94;99483.41;1755841;80;25292;-74
2021/01/01 01:05:16;;;;;;;76.00;40.83;;;;;;;3.45;79.91;99486.39;1755702;80;23789;-75
2021/01/01 01:07:42;;;;;;;71.92;40.52;;;;;;;3.48;79.80;99484.83;1760731;80;28494;-76
2021/01/01 01:10:12;;;;;;;81.40;43.00;;;;;;;3.45;80.13;99483.78;1761623;80;26769;-77
2021/01/01 01:12:36;;;;;;;80.05;43.00;;;;;;;3.45;79.86;99489.00;1759574;80;21213;-76
2021/01/01 01:15:02;;;;;;;78.30;40.45;;;;;;;3.32;79.46;99490.95;1754027;80;26761;-76
2021/01/01 01:17:28;;;;;;;74.37;40.90;;;;;;;3.26;79.60;99491.45;1738018;80;21271;-77
2021/01/01 01:19:54;;;;;;;85.50;44.23;;;;;;;3.30;79.73;99492.86;1736331;81;27922;-76
2021/01/01 01:22:20;;;;;;;79.65;43.78;;;;;;;3.35;79.57;99495.92;1735477;82;26824;-76
2021/01/01 01:24:45;;;;;;;88.42;46.02;;;;;;;3.38;79.87;99490.45;1735100;81;22191;-79
2021/01/01 01:27:11;;;;;;;86.77;43.57;;;;;;;3.31;80.04;99495.80;1736206;81;27282;-77
2021/01/01 01:29:37;;;;;;;83.00;46.57;;;;;;;3.26;80.32;99494.06;1736493;81;21787;-75
2021/01/01 01:32:03;;;;;;;93.35;47.70;;;;;;;3.44;79.59;99487.33;1732043;81;28325;-75
2021/01/01 01:34:29;;;;;;;89.07;45.35;;;;;;;3.38;79.39;99486.05;1735512;81;26821;-74
2021/01/01 01:36:54;;;;;;;85.45;45.12;;;;;;;3.34;79.53;99485.12;1732584;82;21379;-74
2021/01/01 01:39:20;;;;;;;84.60;44.58;;;;;;;3.26;79.86;99483.63;1741567;81;25534;-76
2021/01/01 01:41:46;;;;;;;80.17;44.83;;;;;;;3.37;80.21;99491.39;1735558;82;25720;-75
2021/01/01 01:44:11;;;;;;;83.97;46.02;;;;;;;3.47;80.20;99487.56;1738088;81;28478;-75
2021/01/01 01:46:42;;;;;;;85.70;44.98;;;;;;;3.44;80.07;99495.16;1731264;81;27180;-76
2021/01/01 01:49:10;;;;;;;82.97;43.63;;;;;;;3.36;79.30;99488.45;1735969;81;21927;-77
2021/01/01 01:51:36;;;;;;;80.25;42.53;;;;;;;3.36;79.79;99485.84;1732807;81;21743;-74
2021/01/01 01:54:02;;;;;;;87.73;45.07;;;;;;;3.43;79.67;99493.49;1732020;80;24245;-75
2021/01/01 01:56:27;;;;;;;85.20;45.08;;;;;;;3.45;79.79;99494.22;1733232;81;28897;-75
2021/01/01 01:58:53;;;;;;;88.72;46.75;;;;;;;3.42;79.95;99491.86;1737368;81;26691;-75
2021/01/01 02:01:20;;;;;;;89.55;44.67;;;;;;;3.50;80.12;99490.74;1732718;81;21826;-77
2021/01/01 02:03:46;;;;;;;83.65;44.10;;;;;;;3.57;79.94;99487.98;1737166;81;21185;-75
2021/01/01 02:06:12;;;;;;;85.47;46.13;;;;;;;3.50;79.80;99485.52;1735641;81;22699;-76
2021/01/01 02:08:38;;;;;;;86.60;46.85;;;;;;;3.39;79.74;99489.50;1735894;81;28311;-80
2021/01/01 02:11:04;;;;;;;81.65;44.23;;;;;;;3.39;80.01;99484.28;1734977;81;26700;-79
2021/01/01 02:13:29;;;;;;;85.35;45.45;;;;;;;3.31;80.49;99486.67;1706254;82;21372;-78
2021/01/01 02:15:55;;;;;;;82.07;44.23;;;;;;;3.26;80.55;99482.32;1744579;78;25098;-76
2021/01/01 02:18:37;;;;;;;90.43;44.97;;;;;;;3.26;80.65;99478.41;1781702;79;25879;-75
2021/01/01 02:21:04;;;;;;;81.47;46.48;;;;;;;3.20;80.76;99479.72;1777948;79;21230;-75
2021/01/01 02:23:30;;;;;;;96.10;43.73;;;;;;;3.19;81.13;99481.52;1775502;79;21166;-75
2021/01/01 02:25:56;;;;;;;77.23;44.30;;;;;;;3.20;80.64;99482.33;1776371;79;22018;-75
2021/01/01 02:28:22;;;;;;;92.35;45.23;;;;;;;3.17;80.90;99480.82;1777822;79;21157;-76
2021/01/01 02:30:48;;;;;;;88.10;45.03;;;;;;;3.22;81.07;99479.96;1775640;79;21836;-75
2021/01/01 02:33:14;;;;;;;84.40;47.62;;;;;;;3.23;80.54;99484.23;1779974;79;21620;-74
2021/01/01 02:35:40;;;;;;;88.05;45.52;;;;;;;3.16;80.80;99480.46;1776990;79;27418;-75
2021/01/01 02:38:05;;;;;;;88.63;45.10;;;;;;;3.19;80.81;99485.42;1775760;79;22813;-75
2021/01/01 02:40:31;;;;;;;86.60;45.73;;;;;;;3.16;80.52;99483.06;1778674;79;26038;-76
2021/01/01 02:42:57;;;;;;;84.83;44.57;;;;;;;3.22;80.53;99482.57;1776998;79;22233;-76
2021/01/01 02:45:23;;;;;;;87.70;45.73;;;;;;;3.26;80.35;99479.70;1776690;79;28851;-75
2021/01/01 02:47:49;;;;;;;90.07;45.28;;;;;;;3.05;80.67;99480.52;1778213;79;25456;-74
2021/01/01 02:50:17;;;;;;;95.42;47.10;;;;;;;3.07;81.14;99477.30;1779898;78;21434;-74
2021/01/01 02:52:42;;;;;;;;;;;;;;;2.99;81.39;99481.83;1782682;79;21194;-74
2021/01/01 02:55:09;;;;;;;91.10;44.80;;;;;;;3.04;81.40;99480.15;1778498;79;20195;-75
2021/01/01 02:57:35;;;;;;;97.88;46.85;;;;;;;3.01;81.39;99481.22;1778376;79;21594;-75
2021/01/01 03:00:00;;;;;;;88.37;47.05;;;;;;;3.02;81.77;99481.58;1776099;79;27294;-75
2021/01/01 03:02:27;;;;;;;92.67;47.33;;;;;;;2.99;81.89;99480.52;1777883;79;22092;-75
2021/01/01 03:04:53;;;;;;;102.47;47.62;;;;;;;2.91;82.28;99479.50;1778689;79;21210;-74
2021/01/01 03:07:19;;;;;;;98.37;47.97;;;;;;;2.80;82.90;99481.18;1778373;79;21126;-74
2021/01/01 03:09:44;;;;;;;93.33;48.02;;;;;;;2.74;83.11;99482.98;1783570;79;28370;-75
2021/01/01 03:12:10;;;;;;;97.35;48.90;;;;;;;2.79;83.17;99482.13;1778944;78;27247;-75
2021/01/01 03:14:36;;;;;;;91.73;48.40;;;;;;;2.76;83.14;99479.76;1778419;79;22605;-75
2021/01/01 03:17:02;;;;;;;95.23;48.10;;;;;;;2.77;83.03;99482.73;1767906;79;25466;-74
2021/01/01 03:19:27;;;;;;;92.97;47.47;;;;;;;2.94;82.81;99480.56;1761042;80;23769;-74
2021/01/01 03:21:53;;;;;;;98.40;48.52;;;;;;;2.95;82.29;99470.46;1759355;80;28346;-75
2021/01/01 03:24:19;;;;;;;92.30;50.80;;;;;;;3.14;82.08;99483.68;1756890;80;26725;-74
2021/01/01 03:26:45;;;;;;;105.10;51.30;;;;;;;3.15;81.31;99482.70;1758377;80;21841;-75
2021/01/01 03:29:10;;;;;;;106.87;52.30;;;;;;;3.05;81.48;99484.42;1758601;80;25262;-74
2021/01/01 03:31:36;;;;;;;109.80;55.87;;;;;;;3.04;81.67;99485.37;1757872;80;21783;-75
2021/01/01 03:34:02;;;;;;;106.58;53.90;;;;;;;2.94;81.66;99483.98;1758966;80;28773;-74
2021/01/01 03:36:27;;;;;;;106.55;53.70;;;;;;;3.04;81.72;99482.76;1758398;80;26538;-75
2021/01/01 03:38:54;;;;;;;103.78;54.25;;;;;;;3.00;81.63;99490.50;1758495;80;21981;-74
2021/01/01 03:41:20;;;;;;;107.92;51.50;;;;;;;2.74;81.73;99455.60;1759680;80;21568;-75
2021/01/01 03:43:46;;;;;;;103.13;52.67;;;;;;;3.00;81.54;99481.38;1758963;80;22808;-76
2021/01/01 03:46:12;;;;;;;110.50;55.85;;;;;;;3.04;81.42;99484.06;1758457;80;28293;-78
2021/01/01 03:48:37;;;;;;;111.62;57.78;;;;;;;3.04;81.61;99488.80;1757504;80;26784;-76
2021/01/01 03:51:03;;;;;;;121.62;59.35;;;;;;;3.13;81.57;99489.84;1757948;79;21367;-74
2021/01/01 03:53:29;;;;;;;122.22;61.05;;;;;;;3.11;81.58;99493.06;1760389;80;21133;-76
2021/01/01 03:55:55;;;;;;;112.70;59.37;;;;;;;3.17;81.47;99491.26;1757507;80;21824;-76
2021/01/01 03:58:21;;;;;;;111.75;58.28;;;;;;;3.14;80.90;99491.96;1759547;80;28251;-76
2021/01/01 04:00:47;;;;;;;104.15;53.35;;;;;;;3.20;80.57;99487.55;1755745;80;21637;-76
2021/01/01 04:03:12;;;;;;;100.58;52.40;;;;;;;3.23;80.33;99492.06;1759386;80;22278;-75
2021/01/01 04:05:38;;;;;;;99.00;52.43;;;;;;;3.30;80.17;99487.65;1760997;80;25303;-74
2021/01/01 04:08:04;;;;;;;106.30;53.33;;;;;;;3.27;79.71;99485.29;1756747;80;22827;-75
2021/01/01 04:10:30;;;;;;;99.03;51.68;;;;;;;3.30;79.88;99483.73;1758353;80;21780;-75
2021/01/01 04:12:56;;;;;;;95.40;49.48;;;;;;;3.24;79.57;99481.14;1759341;80;26738;-75
2021/01/01 04:15:21;;;;;;;95.47;48.17;;;;;;;3.26;79.97;99487.53;1757673;80;22036;-76
2021/01/01 04:17:47;;;;;;;97.47;49.43;;;;;;;3.23;79.36;99494.67;1756470;80;25234;-76
2021/01/01 04:20:13;;;;;;;99.50;49.67;;;;;;;3.17;79.21;99487.34;1758010;80;23741;-75
2021/01/01 04:22:39;;;;;;;95.15;49.85;;;;;;;3.11;79.35;99491.75;1758691;80;21651;-76
2021/01/01 04:25:06;;;;;;;99.60;49.67;;;;;;;3.21;79.32;99493.95;1754859;80;26780;-75
2021/01/01 04:27:32;;;;;;;104.38;52.60;;;;;;;3.18;79.42;99496.80;1759498;80;21205;-76
2021/01/01 04:29:58;;;;;;;97.97;51.67;;;;;;;2.91;79.97;99489.94;1751306;80;25277;-76
2021/01/01 04:32:23;;;;;;;100.17;51.20;;;;;;;2.87;80.01;99495.85;1760207;80;21081;-76
2021/01/01 04:34:49;;;;;;;105.45;50.60;;;;;;;2.91;80.46;99499.06;1760230;80;28744;-76
2021/01/01 04:37:15;;;;;;;96.65;49.70;;;;;;;2.95;80.34;99494.78;1751320;80;26731;-76
2021/01/01 04:39:41;;;;;;;106.40;52.27;;;;;;;3.00;80.31;99491.80;1758045;80;21358;-76
2021/01/01 04:42:06;;;;;;;100.75;49.13;;;;;;;2.93;80.25;99497.97;1758741;80;26095;-76
2021/01/01 04:44:32;;;;;;;89.83;45.70;;;;;;;2.96;80.41;99492.99;1755061;80;23771;-76
2021/01/01 04:46:59;;;;;;;90.30;48.10;;;;;;;2.99;80.41;99495.35;1757766;80;28091;-74
2021/01/01 04:49:25;;;;;;;108.20;48.52;;;;;;;3.06;80.56;99499.10;1754767;80;21202;-76
2021/01/01 04:51:50;;;;;;;98.90;48.63;;;;;;;3.04;80.71;99496.62;1723774;80;21092;-76
2021/01/01 04:54:16;;;;;;;93.60;45.73;;;;;;;3.11;80.76;99498.73;1761598;80;25211;-77
2021/01/01 04:56:47;;;;;;;101.78;48.75;;;;;;;2.99;80.57;99500.57;1758701;80;21201;-75
2021/01/01 04:59:16;;;;;;;96.70;50.38;;;;;;;2.76;81.29;99496.70;1757658;80;21242;-75
2021/01/01 05:01:45;;;;;;;98.33;46.80;;;;;;;2.83;81.61;99504.41;1758731;79;21284;-75
2021/01/01 05:04:12;;;;;;;100.78;49.53;;;;;;;2.84;81.86;99504.77;1758231;80;21433;-75
2021/01/01 05:06:43;;;;;;;96.37;47.70;;;;;;;2.78;82.25;99506.56;1728273;80;21641;-75
2021/01/01 05:09:12;;;;;;;98.40;47.78;;;;;;;2.71;82.47;99510.59;1754525;80;21201;-76
2021/01/01 05:11:38;;;;;;;94.67;47.58;;;;;;;2.76;82.53;99510.23;1746834;81;21551;-75
2021/01/01 05:14:05;;;;;;;99.50;48.70;;;;;;;2.64;82.82;99514.63;1759816;80;26656;-76
2021/01/01 05:16:31;;;;;;;103.42;47.65;;;;;;;2.74;82.75;99510.35;1760519;80;21850;-76
2021/01/01 05:18:56;;;;;;;96.17;49.10;;;;;;;2.78;82.36;99509.17;1773409;78;22397;-76
2021/01/01 05:21:27;;;;;;;96.90;48.13;;;;;;;2.81;82.30;99514.59;1769441;79;22823;-76
2021/01/01 05:23:54;;;;;;;94.22;47.53;;;;;;;2.87;82.16;99514.95;1771670;79;21173;-76
2021/01/01 05:26:20;;;;;;;;;;;;;;;2.88;82.15;99511.38;1771552;79;21579;-76
2021/01/01 05:28:53;;;;;;;105.50;49.10;;;;;;;2.95;81.82;99514.80;1758670;79;21170;-77
2021/01/01 05:31:30;;;;;;;95.80;46.55;;;;;;;2.90;81.70;99514.34;1765897;79;21212;-77
2021/01/01 05:34:03;;;;;;;100.07;44.77;;;;;;;2.94;81.70;99517.08;1771748;79;21615;-77
2021/01/01 05:36:36;;;;;;;106.10;49.23;;;;;;;3.05;81.17;99515.73;1769420;79;21146;-76
2021/01/01 05:39:19;;;;;;;107.58;51.40;;;;;;;2.96;81.27;99521.68;1772222;79;21682;-76
2021/01/01 05:41:51;;;;;;;100.02;48.35;;;;;;;2.94;81.57;99517.08;1770448;79;21899;-76
2021/01/01 05:44:21;;;;;;;103.78;47.90;;;;;;;3.04;81.60;99525.31;1771502;79;21186;-75
2021/01/01 05:47:02;;;;;;;97.42;48.00;;;;;;;3.05;81.46;99526.16;1772706;79;21148;-74
2021/01/01 05:49:34;;;;;;;98.47;49.30;;;;;;;3.13;81.44;99529.45;1768240;79;21143;-75
2021/01/01 05:52:12;;;;;;;93.15;45.43;;;;;;;3.09;81.26;99532.77;1769939;79;21607;-75
2021/01/01 05:54:43;;;;;;;86.10;47.67;;;;;;;3.14;81.32;99542.38;1766769;78;21178;-75
2021/01/01 05:57:10;;;;;;;99.25;49.70;;;;;;;3.22;81.23;99536.55;1770768;79;21596;-75
2021/01/01 05:59:44;;;;;;;96.97;45.10;;;;;;;3.29;81.05;99538.17;1772203;79;21144;-75
2021/01/01 06:02:10;;;;;;;98.33;50.48;;;;;;;3.35;80.85;99537.67;1774852;79;21182;-75
2021/01/01 06:04:37;;;;;;;97.30;49.73;;;;;;;3.36;80.72;99540.64;1769191;79;27372;-75
2021/01/01 06:07:09;;;;;;;96.10;46.40;;;;;;;3.42;80.32;99540.14;1772991;79;21999;-74
2021/01/01 06:09:35;;;;;;;104.05;48.83;;;;;;;3.43;79.96;99541.78;1775183;79;21150;-75
2021/01/01 06:12:08;;;;;;;91.60;47.73;;;;;;;3.38;79.58;99540.03;1768596;79;21162;-74
2021/01/01 06:14:40;;;;;;;96.82;50.10;;;;;;;3.39;79.85;99539.09;1767118;79;21436;-74
2021/01/01 06:17:17;;;;;;;96.92;48.70;;;;;;;3.45;79.91;99541.20;1772891;78;21218;-74
2021/01/01 06:19:52;;;;;;;;;;;;;;;3.48;79.88;99543.56;1792137;78;21209;-74
2021/01/01 06:22:28;;;;;;;90.32;44.93;;;;;;;3.28;80.45;99550.40;1792594;78;20286;-74
2021/01/01 06:24:59;;;;;;;98.20;49.48;;;;;;;3.19;81.07;99544.13;1785446;78;21215;-75
2021/01/01 06:27:31;;;;;;;99.42;49.93;;;;;;;3.21;80.83;99539.61;1788637;78;21164;-75
2021/01/01 06:30:11;;;;;;;95.65;47.05;;;;;;;3.28;80.32;99536.50;1788190;78;21160;-75
2021/01/01 06:32:36;;;;;;;96.15;49.35;;;;;;;3.18;80.28;99538.55;1786621;78;22386;-74
2021/01/01 06:35:20;;;;;;;96.67;47.47;;;;;;;3.02;80.78;99542.05;1787900;78;26178;-74
2021/01/01 06:37:56;;;;;;;97.10;47.30;;;;;;;3.05;80.78;99539.20;1786606;78;21141;-74
2021/01/01 06:40:35;;;;;;;89.15;46.23;;;;;;;3.06;80.77;99542.14;1788887;78;21238;-74
2021/01/01 06:43:06;;;;;;;95.30;45.83;;;;;;;3.04;80.94;99537.53;1790009;78;21185;-74
2021/01/01 06:45:47;;;;;;;92.60;44.30;;;;;;;2.98;81.25;99538.02;1784682;78;21334;-74
2021/01/01 06:48:30;;;;;;;102.85;48.92;;;;;;;2.94;81.36;99541.36;1789173;78;21194;-74
2021/01/01 06:50:56;;;;;;;99.15;48.63;;;;;;;2.80;81.62;99537.24;1787790;78;21173;-74
2021/01/01 06:53:29;;;;;;;108.35;52.05;;;;;;;2.74;81.83;99542.13;1790603;78;28326;-74
2021/01/01 06:56:11;;;;;;;100.78;50.00;;;;;;;2.61;82.39;99540.93;1787087;78;21142;-73
2021/01/01 06:58:37;;;;;;;104.20;48.73;;;;;;;2.64;82.73;99541.99;1786819;78;21224;-73
2021/01/01 07:01:16;;;;;;;106.20;48.50;;;;;;;2.64;82.98;99540.69;1789401;78;25117;-74
2021/01/01 07:03:41;;;;;;;107.72;50.03;;;;;;;2.67;82.88;99545.66;1790750;78;21256;-75
2021/01/01 07:06:13;;;;;;;104.53;50.58;;;;;;;2.76;82.74;99542.33;1787916;78;28351;-73
2021/01/01 07:08:46;;;;;;;109.80;50.75;;;;;;;2.85;82.35;99541.61;1787761;78;21172;-75
2021/01/01 07:11:26;;;;;;;102.22;48.15;;;;;;;2.96;82.14;99550.37;1788731;78;21253;-74
2021/01/01 07:13:54;;;;;;;92.78;48.05;;;;;;;3.03;81.99;99545.00;1788571;78;21720;-75
2021/01/01 07:16:25;;;;;;;98.97;50.70;;;;;;;3.06;81.92;99542.14;1789536;78;21213;-73
2021/01/01 07:18:53;;;;;;;105.20;50.23;;;;;;;3.11;81.65;99547.84;1785073;78;21192;-74
2021/01/01 07:21:19;;;;;;;98.35;48.05;;;;;;;3.15;81.38;99542.71;1781053;78;21126;-74
2021/01/01 07:23:46;;;;;;;97.53;51.80;;;;;;;3.23;81.34;99546.86;1775064;79;21224;-74
2021/01/01 07:26:12;;;;;;;103.50;47.33;;;;;;;3.30;80.91;99551.58;1775391;79;21197;-75
2021/01/01 07:28:40;;;;;;;92.08;47.85;;;;;;;3.36;80.76;99548.47;1774872;79;21188;-74
2021/01/01 07:31:06;;;;;;;;;;;;;;;3.38;80.18;99548.68;1777959;79;21098;-75
2021/01/01 07:33:32;;;;;;;81.57;41.28;;;;;;;3.39;79.90;99549.53;1782611;79;26724;-75
2021/01/01 07:36:06;;;;;;;97.42;49.03;;;;;;;3.43;80.09;99549.61;1779114;79;21402;-75
2021/01/01 07:38:34;;;;;;;98.50;49.00;;;;;;;3.42;79.89;99554.50;1779864;79;21258;-75
2021/01/01 07:41:00;;;;;;;101.00;47.80;;;;;;;3.38;80.12;99553.90;1785384;79;21214;-75
2021/01/01 07:43:26;;;;;;;91.05;49.65;;;;;;;3.41;80.30;99550.22;1779488;79;28335;-75
2021/01/01 07:45:58;;;;;;;104.78;47.53;;;;;;;3.44;80.26;99551.28;1778840;79;26614;-75
2021/01/01 07:48:25;;;;;;;91.95;49.73;;;;;;;3.46;79.96;99553.27;1778699;79;21417;-74
2021/01/01 07:50:51;;;;;;;97.90;46.18;;;;;;;3.44;79.27;99560.41;1775895;79;21609;-75
2021/01/01 07:53:17;;;;;;;101.33;49.27;;;;;;;3.44;79.27;99560.41;1779759;79;21551;-75
2021/01/01 07:55:43;;;;;;;96.32;47.30;;;;;;;3.47;79.24;99560.16;1780575;79;28263;-74
2021/01/01 07:58:10;;;;;;;90.62;46.15;;;;;;;3.50;79.05;99561.70;1779501;79;26712;-75
2021/01/01 08:00:46;;;;;;;87.37;47.13;;;;;;;3.49;79.06;99559.55;1780731;79;21330;-74
2021/01/01 08:03:14;;;;;;;102.02;49.08;;;;;;;3.41;78.80;99560.66;1778725;79;21185;-74
2021/01/01 08:05:46;;;;;;;99.28;48.70;;;;;;;3.49;78.87;99569.99;1781957;79;21137;-74
2021/01/01 08:08:14;;;;;;;94.95;49.25;;;;;;;3.29;78.76;99569.00;1779323;79;21178;-74
2021/01/01 08:10:42;;;;;;;91.65;45.67;;;;;;;3.22;79.00;99570.46;1780003;79;21156;-75
2021/01/01 08:13:16;;;;;;;96.35;48.55;;;;;;;3.18;78.90;99569.86;1776590;79;21511;-74
2021/01/01 08:15:42;;;;;;;100.38;46.83;;;;;;;2.95;79.68;99567.81;1708362;82;21655;-74
2021/01/01 08:18:15;;;;;;;105.83;49.18;;;;;;;2.75;80.27;99573.73;1723777;81;21193;-75
2021/01/01 08:20:40;;;;;;;99.35;47.67;;;;;;;2.73;80.67;99572.56;1710539;82;21676;-75
2021/01/01 08:23:11;;;;;;;89.50;45.75;;;;;;;2.63;80.87;99578.16;1712886;82;21174;-74
2021/01/01 08:25:37;;;;;;;96.32;46.68;;;;;;;2.48;81.39;99578.38;1711523;82;21237;-73
2021/01/01 08:28:05;;;;;;;91.42;42.93;;;;;;;2.58;81.43;99581.56;1714116;82;21212;-73
2021/01/01 08:30:31;;;;;;;97.40;47.83;;;;;;;2.60;81.36;99585.73;1711519;82;21229;-73
2021/01/01 08:32:58;;;;;;;101.80;48.83;;;;;;;2.63;81.27;99587.28;1715295;82;21133;-74
2021/01/01 08:35:25;;;;;;;98.87;44.05;;;;;;;2.50;81.63;99583.46;1717107;82;21654;-74
2021/01/01 08:37:52;;;;;;;96.25;45.45;;;;;;;2.45;81.70;99587.73;1708619;82;21200;-74
2021/01/01 08:40:18;;;;;;;92.82;44.15;;;;;;;2.54;81.57;99584.08;1714231;82;21207;-75
2021/01/01 08:42:43;;;;;;;91.23;44.47;;;;;;;2.57;81.38;99587.27;1711345;82;24200;-74
2021/01/01 08:45:11;;;;;;;94.10;44.70;;;;;;;2.64;81.31;99585.00;1711365;82;28997;-75
2021/01/01 08:47:44;;;;;;;92.25;44.85;;;;;;;2.72;80.96;99590.92;1713793;82;21165;-74
2021/01/01 08:50:21;;;;;;;91.78;45.85;;;;;;;2.68;80.96;99591.65;1715887;82;21770;-74
2021/01/01 08:52:50;;;;;;;94.77;46.45;;;;;;;2.69;81.12;99590.71;1713186;82;21234;-74
2021/01/01 08:55:16;;;;;;;90.35;43.28;;;;;;;2.54;81.68;99590.11;1715176;81;21134;-75
2021/01/01 08:57:42;;;;;;;87.82;42.98;;;;;;;2.63;81.74;99588.09;1712940;82;28385;-74
2021/01/01 09:00:08;;;;;;;93.42;44.48;;;;;;;2.64;81.73;99596.28;1710027;82;26831;-75
2021/01/01 09:02:34;;;;;;;93.97;43.87;;;;;;;2.67;82.03;99597.80;1710322;82;21303;-74
2021/01/01 09:05:02;;;;;;;89.67;43.13;;;;;;;2.51;81.88;99596.37;1712613;82;25774;-75
2021/01/01 09:07:28;;;;;;;82.05;40.95;;;;;;;2.55;81.52;99600.05;1713054;82;21218;-75
2021/01/01 09:09:54;;;;;;;89.70;41.73;;;;;;;2.39;81.41;99609.53;1715279;82;28352;-74
2021/01/01 09:12:22;;;;;;;90.45;41.45;;;;;;;2.30;81.88;99613.65;1710045;82;27196;-75
2021/01/01 09:14:55;;;;;;;85.60;40.65;;;;;;;2.07;82.58;99617.53;1716467;82;21240;-75
2021/01/01 09:17:24;;;;;;;87.40;40.40;;;;;;;1.84;83.93;99611.91;1711206;82;21210;-76
2021/01/01 09:20:05;;;;;;;87.50;40.12;;;;;;;1.69;84.56;99617.28;1714906;82;21236;-75
2021/01/01 09:22:35;;;;;;;85.67;39.10;;;;;;;1.67;84.81;99621.78;1710360;81;21173;-75
2021/01/01 09:25:22;;;;;;;82.92;39.18;;;;;;;1.63;84.98;99619.03;1715246;81;21228;-74
2021/01/01 09:27:50;;;;;;;89.45;37.30;;;;;;;1.70;85.08;99624.16;1708662;82;21884;-74
2021/01/01 09:30:17;;;;;;;73.37;33.85;;;;;;;1.66;84.95;99622.71;1713066;81;21206;-75
2021/01/01 09:32:48;;;;;;;75.15;35.03;;;;;;;1.66;85.09;99621.41;1711333;82;21261;-74
2021/01/01 09:35:14;;;;;;;70.35;32.67;;;;;;;1.77;84.79;99622.77;1710628;82;21220;-75
2021/01/01 09:37:52;;;;;;;82.47;37.98;;;;;;;1.72;84.96;99618.84;1711553;82;25422;-74
2021/01/01 09:40:19;;;;;;;71.50;33.78;;;;;;;1.68;85.17;99622.14;1716537;82;21240;-74
2021/01/01 09:42:45;;;;;;;77.40;34.08;;;;;;;1.54;86.06;99630.11;1712382;82;21509;-74
2021/01/01 09:45:12;;;;;;;70.60;34.83;;;;;;;1.68;86.30;99623.90;1712066;82;20980;-75
2021/01/01 09:47:37;;;;;;;69.07;30.60;;;;;;;1.84;85.68;99622.33;1710782;82;21205;-73
2021/01/01 09:50:07;;;;;;;69.50;33.13;;;;;;;1.98;84.92;99619.52;1712948;82;25178;-73
2021/01/01 09:52:33;;;;;;;73.02;33.83;;;;;;;2.00;84.32;99622.01;1710530;82;21204;-73
2021/01/01 09:54:59;;;;;;;69.43;30.70;;;;;;;1.78;84.50;99605.37;1712379;82;21170;-74
2021/01/01 09:57:25;;;;;;;63.17;30.03;;;;;;;1.78;84.50;99605.37;1711718;82;21442;-76
2021/01/01 09:59:51;;;;;;;66.80;30.00;;;;;;;2.00;84.28;99622.01;1710396;81;27821;-76
2021/01/01 10:02:17;;;;;;;66.65;29.63;;;;;;;2.04;83.77;99620.36;1713930;82;25756;-76
2021/01/01 10:04:42;;;;;;;66.30;32.03;;;;;;;2.03;83.62;99612.67;1714714;82;21451;-75
2021/01/01 10:07:08;;;;;;;65.87;30.87;;;;;;;1.95;83.75;99612.75;1711620;82;21699;-75
2021/01/01 10:09:34;;;;;;;72.40;31.30;;;;;;;2.06;83.72;99611.95;1714491;82;21686;-77
2021/01/01 10:12:03;;;;;;;70.13;31.33;;;;;;;2.16;83.45;99614.72;1712119;82;28254;-77
2021/01/01 10:14:29;;;;;;;59.67;28.42;;;;;;;2.20;83.22;99611.41;1712747;82;21198;-76
2021/01/01 10:16:55;;;;;;;63.67;29.10;;;;;;;2.17;82.93;99610.33;1711800;82;21956;-76
2021/01/01 10:19:21;;;;;;;63.20;30.10;;;;;;;2.24;82.89;99612.84;1713549;82;21391;-75
2021/01/01 10:21:46;;;;;;;65.97;29.17;;;;;;;2.08;82.93;99615.75;1709369;82;21055;-76
2021/01/01 10:24:12;;;;;;;55.73;27.37;;;;;;;2.20;83.31;99614.83;1709363;82;27228;-73
2021/01/01 10:26:38;;;;;;;61.92;28.83;;;;;;;2.32;83.19;99613.08;1715609;82;26556;-76
2021/01/01 10:29:03;;;;;;;62.43;30.87;;;;;;;2.36;82.92;99618.39;1712912;82;21461;-74
2021/01/01 10:31:29;;;;;;;64.97;29.53;;;;;;;2.38;82.83;99611.77;1711338;82;24796;-76
2021/01/01 10:33:55;;;;;;;67.70;30.37;;;;;;;2.41;82.69;99614.98;1712403;82;21655;-76
2021/01/01 10:36:21;;;;;;;60.55;28.12;;;;;;;2.46;82.62;99620.67;1709153;82;26917;-73
2021/01/01 10:38:46;;;;;;;57.62;27.62;;;;;;;2.47;82.69;99611.91;1713653;82;26661;-72
2021/01/01 10:41:13;;;;;;;57.53;27.25;;;;;;;2.45;82.68;99612.48;1710589;82;21381;-76
2021/01/01 10:43:39;;;;;;;62.23;28.70;;;;;;;2.54;82.68;99610.14;1709642;82;21217;-75
2021/01/01 10:46:04;;;;;;;66.75;27.50;;;;;;;2.54;82.55;99603.14;1713728;82;21202;-76
2021/01/01 10:48:30;;;;;;;58.23;28.37;;;;;;;2.62;82.62;99602.55;1711043;82;28744;-75
2021/01/01 10:50:56;;;;;;;58.48;29.63;;;;;;;2.55;82.39;99596.14;1716974;82;26784;-76
2021/01/01 10:53:22;;;;;;;58.13;28.00;;;;;;;2.67;82.43;99593.89;1713663;82;22269;-75
2021/01/01 10:55:50;;;;;;;63.87;29.47;;;;;;;2.60;82.05;99592.73;1709817;82;23324;-74
2021/01/01 10:58:26;;;;;;;62.85;28.27;;;;;;;2.56;82.66;99587.39;1711686;82;21133;-74
2021/01/01 11:00:55;;;;;;;58.73;27.30;;;;;;;2.64;82.52;99588.46;1712836;82;21698;-74
2021/01/01 11:03:22;;;;;;;63.52;29.30;;;;;;;2.71;82.42;99586.20;1716732;82;21216;-72
2021/01/01 11:05:48;;;;;;;60.25;30.23;;;;;;;2.76;82.33;99584.53;1711745;82;21257;-70
2021/01/01 11:08:14;;;;;;;66.65;29.70;;;;;;;2.68;82.34;99587.25;1714518;82;21214;-74
2021/01/01 11:10:39;;;;;;;61.97;28.67;;;;;;;2.59;82.52;99587.15;1713254;82;21856;-77
2021/01/01 11:13:06;;;;;;;62.58;29.60;;;;;;;2.61;82.54;99590.45;1713345;82;28193;-76
2021/01/01 12:22:12;;;;;;;52.27;23.60;;;;;;;2.46;82.99;99593.30;1724022;81;21139;-74
2021/01/01 12:26:57;;;;;;;53.38;21.70;;;;;;;2.50;82.79;99602.55;1728383;81;21346;-77
2021/01/01 12:29:23;;;;;;;52.70;23.98;;;;;;;2.51;82.71;99611.20;1696251;82;21140;-72
2021/01/01 12:31:49;;;;;;;52.47;23.17;;;;;;;2.40;82.72;99612.02;1687092;81;21784;-73
2021/01/01 12:34:14;;;;;;;52.38;21.95;;;;;;;2.24;82.68;99620.17;1729386;81;27671;-75
2021/01/01 12:36:40;;;;;;;46.20;21.93;;;;;;;2.20;83.23;99612.70;1734934;81;25646;-80